首页
METAR-TAF:

METAR-TAF

机场 :

Naval Station Mayport (Adm. David L. McDonald Field)

Mayport, 佛罗里达州, 美国

纬度: 30-23-45N, 经度: 081-25-21W, 海拔: 5米

当前天气观测

该预报发布于53分钟前的03:52 UTC
风速18节,风向北转东北
温度 11°C
湿度 87%
气压 1020 hPa
能見度: 11.3公里
阴天层高于1200英尺

METAR: KNRB 210352Z 03018KT 7SM OVC012 11/09 A3012 RMK AO2 SLP198 P0001 T01060089 $

时间: 23:45 (04:45 UTC)

预报

预报有效从20日的 23点(UTC)到 21日的 23点(UTC)
风速15节,风向,有时为20节阵风
能見度: 6000
多云层高于900英尺
阴天层高于2000英尺
轻雾, 附近有阵雨
从 21日的 0200点(UTC)
风速14节,风向北转东北,有时为18节阵风
能見度: 3200
阴天层高于800英尺
小阵雨, 轻雾
从 21日的 0400点(UTC)
风速20节,风向,有时为25节阵风
能見度: 6000
多云层高于900英尺
阴天层高于1500英尺
小雨, 轻雾
从 21日的 1100点(UTC)
风速20节,风向,有时为30节阵风
能見度: 2330
散云层高于300英尺
阴天层高于1000英尺
附近有阵雨

TAF: KNRB 2023/2123 01015G20KT 6000 BR VCSH BKN009 OVC020 QNH3000INS FM210200 02014G18KT 3200 -SHRA BR OVC008 QNH3008INS FM210400 01020G25KT 6000 -RA BR BKN009 OVC015 QNH3012INS FM211100 01020G30KT 9999 VCSH SCT003 OVC010 QNH3019INS AUTOMATED SENSOR METWATCH 2104 TIL 2110 T08/2110Z T11/2119Z COR 2330 FN20022

超过4000个机场的气象观测和天气预报(METAR&TAF报告)。

可查询的气象台以黄色和红色小点在地图上表示。

将鼠标移到小点上方,可查看气象台名称。

然后点击查看天气观测和预报。

如需切换地图:点击带黑十字的绿色按钮放大地图;点击带横线的绿色按钮缩小地图;或者点击绿色箭头查看邻近地区的地图。


METAR-TAF: